sensor_id;sensor_type;location;lat;lon;timestamp;pressure;altitude;pressure_sealevel;temperature;humidity
9189;BME280;34313;50.780;6.084;2023-02-13T00:01:26;101518.94;;;2.72;100.00
9189;BME280;34313;50.780;6.084;2023-02-13T00:03:52;101523.34;;;2.76;100.00
9189;BME280;34313;50.780;6.084;2023-02-13T00:06:17;101516.41;;;2.79;100.00
9189;BME280;34313;50.780;6.084;2023-02-13T00:08:42;101519.00;;;2.78;100.00
9189;BME280;34313;50.780;6.084;2023-02-13T00:11:08;101508.59;;;2.76;100.00
9189;BME280;34313;50.780;6.084;2023-02-13T00:13:34;101512.06;;;2.74;100.00
9189;BME280;34313;50.780;6.084;2023-02-13T00:16:02;101508.50;;;2.64;100.00
9189;BME280;34313;50.780;6.084;2023-02-13T00:18:28;101498.06;;;2.56;100.00
9189;BME280;34313;50.780;6.084;2023-02-13T00:21:07;101518.09;;;2.67;100.00
9189;BME280;34313;50.780;6.084;2023-02-13T00:23:34;101510.25;;;2.65;100.00
9189;BME280;34313;50.780;6.084;2023-02-13T00:26:03;101516.28;;;2.59;100.00
9189;BME280;34313;50.780;6.084;2023-02-13T00:28:29;101512.81;;;2.59;100.00
9189;BME280;34313;50.780;6.084;2023-02-13T00:31:05;101513.69;;;2.58;100.00
9189;BME280;34313;50.780;6.084;2023-02-13T00:33:30;101509.28;;;2.52;100.00
9189;BME280;34313;50.780;6.084;2023-02-13T00:36:14;101511.06;;;2.56;100.00
9189;BME280;34313;50.780;6.084;2023-02-13T00:38:40;101504.09;;;2.55;100.00
9189;BME280;34313;50.780;6.084;2023-02-13T00:41:06;101503.22;;;2.52;100.00
9189;BME280;34313;50.780;6.084;2023-02-13T00:43:31;101506.69;;;2.49;100.00
9189;BME280;34313;50.780;6.084;2023-02-13T00:45:57;101492.78;;;2.45;100.00
9189;BME280;34313;50.780;6.084;2023-02-13T00:48:24;101498.88;;;2.52;100.00
9189;BME280;34313;50.780;6.084;2023-02-13T00:50:49;101506.66;;;2.46;100.00
9189;BME280;34313;50.780;6.084;2023-02-13T00:53:16;101500.53;;;2.41;100.00
9189;BME280;34313;50.780;6.084;2023-02-13T00:55:42;101505.72;;;2.38;100.00
9189;BME280;34313;50.780;6.084;2023-02-13T00:58:07;101502.25;;;2.37;100.00
9189;BME280;34313;50.780;6.084;2023-02-13T01:00:34;101494.47;;;2.43;100.00
9189;BME280;34313;50.780;6.084;2023-02-13T01:02:59;101498.88;;;2.48;100.00
9189;BME280;34313;50.780;6.084;2023-02-13T01:05:25;101491.06;;;2.49;100.00
9189;BME280;34313;50.780;6.084;2023-02-13T01:07:52;101498.84;;;2.46;100.00
9189;BME280;34313;50.780;6.084;2023-02-13T01:10:17;101484.88;;;2.36;100.00
9189;BME280;34313;50.780;6.084;2023-02-13T01:12:43;101484.03;;;2.36;100.00
9189;BME280;34313;50.780;6.084;2023-02-13T01:15:08;101490.09;;;2.36;100.00
9189;BME280;34313;50.780;6.084;2023-02-13T01:17:34;101483.06;;;2.26;100.00
9189;BME280;34313;50.780;6.084;2023-02-13T01:19:59;101478.75;;;2.25;100.00
9189;BME280;34313;50.780;6.084;2023-02-13T01:22:24;101483.94;;;2.25;100.00
9189;BME280;34313;50.780;6.084;2023-02-13T01:24:50;101481.34;;;2.30;100.00
9189;BME280;34313;50.780;6.084;2023-02-13T01:27:15;101478.75;;;2.25;100.00
9189;BME280;34313;50.780;6.084;2023-02-13T01:29:40;101467.47;;;2.23;100.00
9189;BME280;34313;50.780;6.084;2023-02-13T01:32:06;101479.59;;;2.24;100.00
9189;BME280;34313;50.780;6.084;2023-02-13T01:34:32;101471.75;;;2.19;100.00
9189;BME280;34313;50.780;6.084;2023-02-13T01:36:57;101477.81;;;2.20;100.00
9189;BME280;34313;50.780;6.084;2023-02-13T01:39:23;101483.03;;;2.18;100.00
9189;BME280;34313;50.780;6.084;2023-02-13T01:41:48;101468.19;;;2.08;100.00
9189;BME280;34313;50.780;6.084;2023-02-13T01:44:46;101486.47;;;2.17;100.00
9189;BME280;34313;50.780;6.084;2023-02-13T01:47:13;101481.25;;;2.14;100.00
9189;BME280;34313;50.780;6.084;2023-02-13T01:49:40;101473.38;;;2.06;100.00
9189;BME280;34313;50.780;6.084;2023-02-13T01:52:06;101492.50;;;2.12;100.00
9189;BME280;34313;50.780;6.084;2023-02-13T01:54:33;101489.03;;;2.11;100.00
9189;BME280;34313;50.780;6.084;2023-02-13T01:57:04;101489.03;;;2.11;100.00
9189;BME280;34313;50.780;6.084;2023-02-13T01:59:36;101485.56;;;2.09;100.00
9189;BME280;34313;50.780;6.084;2023-02-13T02:02:05;101486.41;;;2.10;100.00
9189;BME280;34313;50.780;6.084;2023-02-13T02:04:32;101480.34;;;2.09;100.00
9189;BME280;34313;50.780;6.084;2023-02-13T02:07:23;101487.25;;;2.08;100.00
9189;BME280;34313;50.780;6.084;2023-02-13T02:09:51;101487.25;;;2.04;100.00
9189;BME280;34313;50.780;6.084;2023-02-13T02:13:00;101482.03;;;2.04;100.00
9189;BME280;34313;50.780;6.084;2023-02-13T02:15:22;101475.06;;;2.01;100.00
9189;BME280;34313;50.780;6.084;2023-02-13T02:17:48;101470.66;;;1.94;100.00
9189;BME280;34313;50.780;6.084;2023-02-13T02:20:23;101485.44;;;2.00;100.00
9189;BME280;34313;50.780;6.084;2023-02-13T02:23:15;101474.19;;;2.01;100.00
9189;BME280;34313;50.780;6.084;2023-02-13T02:37:47;101489.81;;;2.01;100.00
9189;BME280;34313;50.780;6.084;2023-02-13T02:48:49;101478.44;;;1.89;100.00
9189;BME280;34313;50.780;6.084;2023-02-13T02:52:06;101476.69;;;1.87;100.00
9189;BME280;34313;50.780;6.084;2023-02-13T02:54:48;101479.28;;;1.88;100.00
9189;BME280;34313;50.780;6.084;2023-02-13T02:58:15;101488.78;;;1.83;100.00
9189;BME280;34313;50.780;6.084;2023-02-13T03:01:00;101493.03;;;1.77;100.00
9189;BME280;34313;50.780;6.084;2023-02-13T03:03:46;101498.25;;;1.77;100.00
9189;BME280;34313;50.780;6.084;2023-02-13T03:06:47;101496.53;;;1.79;100.00
9189;BME280;34313;50.780;6.084;2023-02-13T03:09:18;101481.75;;;1.73;100.00
9189;BME280;34313;50.780;6.084;2023-02-13T03:12:03;101475.59;;;1.63;100.00
9189;BME280;34313;50.780;6.084;2023-02-13T03:14:47;101483.41;;;1.63;100.00
9189;BME280;34313;50.780;6.084;2023-02-13T03:17:14;101488.63;;;1.65;100.00
9189;BME280;34313;50.780;6.084;2023-02-13T03:22:57;101488.50;;;1.57;100.00
9189;BME280;34313;50.780;6.084;2023-02-13T03:28:57;101484.19;;;1.56;100.00
9189;BME280;34313;50.780;6.084;2023-02-13T03:31:54;101491.09;;;1.53;100.00
9189;BME280;34313;50.780;6.084;2023-02-13T03:34:28;101482.38;;;1.47;100.00
9189;BME280;34313;50.780;6.084;2023-02-13T03:37:15;101485.75;;;1.43;100.00
9189;BME280;34313;50.780;6.084;2023-02-13T03:43:14;101485.69;;;1.36;100.00
9189;BME280;34313;50.780;6.084;2023-02-13T03:45:20;101482.22;;;1.37;100.00
9189;BME280;34313;50.780;6.084;2023-02-13T03:48:06;101490.94;;;1.39;100.00
9189;BME280;34313;50.780;6.084;2023-02-13T03:50:53;101487.41;;;1.34;100.00
9189;BME280;34313;50.780;6.084;2023-02-13T03:53:21;101490.88;;;1.34;100.00
9189;BME280;34313;50.780;6.084;2023-02-13T03:55:47;101477.78;;;1.25;100.00
9189;BME280;34313;50.780;6.084;2023-02-13T03:58:37;101492.56;;;1.32;100.00
9189;BME280;34313;50.780;6.084;2023-02-13T04:01:26;101501.19;;;1.29;100.00
9189;BME280;34313;50.780;6.084;2023-02-13T04:04:00;101496.91;;;1.31;100.00
9189;BME280;34313;50.780;6.084;2023-02-13T04:06:55;101489.91;;;1.27;100.00
9189;BME280;34313;50.780;6.084;2023-02-13T04:09:19;101494.19;;;1.24;100.00
9189;BME280;34313;50.780;6.084;2023-02-13T04:12:17;101502.88;;;1.26;100.00
9189;BME280;34313;50.780;6.084;2023-02-13T04:15:31;101496.75;;;1.21;100.00
9189;BME280;34313;50.780;6.084;2023-02-13T04:17:39;101496.81;;;1.24;100.00
9189;BME280;34313;50.780;6.084;2023-02-13T04:20:08;101489.69;;;1.10;100.00
9189;BME280;34313;50.780;6.084;2023-02-13T04:22:33;101504.50;;;1.15;100.00
9189;BME280;34313;50.780;6.084;2023-02-13T04:24:59;101501.00;;;1.12;100.00
9189;BME280;34313;50.780;6.084;2023-02-13T04:27:26;101496.63;;;1.10;100.00
9189;BME280;34313;50.780;6.084;2023-02-13T04:29:52;101499.19;;;1.08;100.00
9189;BME280;34313;50.780;6.084;2023-02-13T04:32:17;101495.72;;;1.06;100.00
9189;BME280;34313;50.780;6.084;2023-02-13T04:34:43;101495.66;;;1.03;100.00
9189;BME280;34313;50.780;6.084;2023-02-13T04:37:08;101497.41;;;1.03;100.00
9189;BME280;34313;50.780;6.084;2023-02-13T04:39:34;101498.31;;;1.06;100.00
9189;BME280;34313;50.780;6.084;2023-02-13T04:41:59;101489.63;;;1.03;100.00
9189;BME280;34313;50.780;6.084;2023-02-13T04:44:25;101488.72;;;0.99;100.00
9189;BME280;34313;50.780;6.084;2023-02-13T04:46:50;101492.19;;;1.01;100.00
9189;BME280;34313;50.780;6.084;2023-02-13T04:49:15;101493.88;;;0.98;100.00
9189;BME280;34313;50.780;6.084;2023-02-13T04:51:41;101485.97;;;0.88;100.00
9189;BME280;34313;50.780;6.084;2023-02-13T04:54:06;101489.44;;;0.89;100.00
9189;BME280;34313;50.780;6.084;2023-02-13T04:56:31;101495.53;;;0.92;100.00
9189;BME280;34313;50.780;6.084;2023-02-13T04:58:57;101492.91;;;0.91;100.00
9189;BME280;34313;50.780;6.084;2023-02-13T05:01:22;101493.88;;;0.98;100.00
9189;BME280;34313;50.780;6.084;2023-02-13T05:03:47;101492.13;;;0.95;100.00
9189;BME280;34313;50.780;6.084;2023-02-13T05:06:13;101486.91;;;0.93;100.00
9189;BME280;34313;50.780;6.084;2023-02-13T05:08:39;101477.38;;;0.92;100.00
9189;BME280;34313;50.780;6.084;2023-02-13T05:11:04;101478.13;;;0.85;100.00
9189;BME280;34313;50.780;6.084;2023-02-13T05:13:30;101481.72;;;0.93;100.00
9189;BME280;34313;50.780;6.084;2023-02-13T05:15:56;101487.78;;;0.94;100.00
9189;BME280;34313;50.780;6.084;2023-02-13T05:18:21;101484.25;;;0.89;100.00
9189;BME280;34313;50.780;6.084;2023-02-13T05:20:46;101497.19;;;0.87;100.00
9189;BME280;34313;50.780;6.084;2023-02-13T05:23:32;101488.53;;;0.87;100.00
9189;BME280;34313;50.780;6.084;2023-02-13T05:25:57;101479.81;;;0.82;100.00
9189;BME280;34313;50.780;6.084;2023-02-13T05:28:23;101478.97;;;0.83;100.00
9189;BME280;34313;50.780;6.084;2023-02-13T05:31:07;101493.66;;;0.82;100.00
9189;BME280;34313;50.780;6.084;2023-02-13T05:33:32;101485.91;;;0.84;100.00
9189;BME280;34313;50.780;6.084;2023-02-13T05:35:57;101494.56;;;0.83;100.00
9189;BME280;34313;50.780;6.084;2023-02-13T05:38:25;101483.25;;;0.81;100.00
9189;BME280;34313;50.780;6.084;2023-02-13T05:40:50;101491.06;;;0.82;100.00
9189;BME280;34313;50.780;6.084;2023-02-13T05:43:15;101492.00;;;0.84;100.00
9189;BME280;34313;50.780;6.084;2023-02-13T05:45:41;101496.28;;;0.84;100.00
9189;BME280;34313;50.780;6.084;2023-02-13T05:48:06;101471.00;;;0.69;100.00
9189;BME280;34313;50.780;6.084;2023-02-13T05:50:32;101493.66;;;0.79;100.00
9189;BME280;34313;50.780;6.084;2023-02-13T05:52:57;101493.66;;;0.79;100.00
9189;BME280;34313;50.780;6.084;2023-02-13T05:55:24;101484.03;;;0.73;100.00
9189;BME280;34313;50.780;6.084;2023-02-13T05:57:49;101490.91;;;0.71;100.00
9189;BME280;34313;50.780;6.084;2023-02-13T06:00:15;101501.44;;;0.79;100.00
9189;BME280;34313;50.780;6.084;2023-02-13T06:02:40;101500.56;;;0.80;100.00
9189;BME280;34313;50.780;6.084;2023-02-13T06:05:06;101498.00;;;0.82;100.00
9189;BME280;34313;50.780;6.084;2023-02-13T06:07:32;101484.94;;;0.75;100.00
9189;BME280;34313;50.780;6.084;2023-02-13T06:09:57;101493.72;;;0.85;100.00
9189;BME280;34313;50.780;6.084;2023-02-13T06:12:24;101490.28;;;0.89;100.00
9189;BME280;34313;50.780;6.084;2023-02-13T06:14:49;101489.38;;;0.83;100.00
9189;BME280;34313;50.780;6.084;2023-02-13T06:17:14;101484.94;;;0.77;100.00
9189;BME280;34313;50.780;6.084;2023-02-13T06:19:40;101489.19;;;0.70;100.00
9189;BME280;34313;50.780;6.084;2023-02-13T06:22:05;101480.50;;;0.70;100.00
9189;BME280;34313;50.780;6.084;2023-02-13T06:24:30;101481.44;;;0.72;100.00
9189;BME280;34313;50.780;6.084;2023-02-13T06:26:55;101471.78;;;0.65;100.00
9189;BME280;34313;50.780;6.084;2023-02-13T06:29:22;101483.19;;;0.74;100.00
9189;BME280;34313;50.780;6.084;2023-02-13T06:31:47;101473.56;;;0.67;100.00
9189;BME280;34313;50.780;6.084;2023-02-13T06:34:12;101489.25;;;0.77;100.00
9189;BME280;34313;50.780;6.084;2023-02-13T06:36:38;101481.50;;;0.78;100.00
9189;BME280;34313;50.780;6.084;2023-02-13T06:39:05;101472.81;;;0.74;100.00
9189;BME280;34313;50.780;6.084;2023-02-13T06:41:31;101477.19;;;0.79;100.00
9189;BME280;34313;50.780;6.084;2023-02-13T06:43:56;101481.63;;;0.87;100.00
9189;BME280;34313;50.780;6.084;2023-02-13T06:46:21;101460.81;;;0.86;100.00
9189;BME280;34313;50.780;6.084;2023-02-13T06:48:47;101474.84;;;0.97;100.00
9189;BME280;34313;50.780;6.084;2023-02-13T06:51:12;101466.13;;;0.93;100.00
9189;BME280;34313;50.780;6.084;2023-02-13T06:53:37;101467.88;;;0.96;100.00
9189;BME280;34313;50.780;6.084;2023-02-13T06:56:04;101470.56;;;1.01;100.00
9189;BME280;34313;50.780;6.084;2023-02-13T06:58:32;101457.53;;;0.99;100.00
9189;BME280;34313;50.780;6.084;2023-02-13T07:00:58;101472.34;;;1.06;100.00
9189;BME280;34313;50.780;6.084;2023-02-13T07:03:24;101474.16;;;1.13;100.00
9189;BME280;34313;50.780;6.084;2023-02-13T07:05:49;101473.41;;;1.24;100.00
9189;BME280;34313;50.780;6.084;2023-02-13T07:08:16;101470.22;;;1.46;100.00
9189;BME280;34313;50.780;6.084;2023-02-13T07:10:42;101461.94;;;1.86;100.00
9189;BME280;34313;50.780;6.084;2023-02-13T07:13:08;101465.69;;;2.22;100.00
9189;BME280;34313;50.780;6.084;2023-02-13T07:15:34;101474.59;;;2.53;100.00
9189;BME280;34313;50.780;6.084;2023-02-13T07:18:01;101473.91;;;2.79;100.00
9189;BME280;34313;50.780;6.084;2023-02-13T07:20:27;101467.06;;;3.07;100.00
9189;BME280;34313;50.780;6.084;2023-02-13T07:22:56;101465.47;;;3.46;100.00
9189;BME280;34313;50.780;6.084;2023-02-13T07:25:22;101454.22;;;3.89;100.00
9189;BME280;34313;50.780;6.084;2023-02-13T07:27:47;101450.72;;;4.39;100.00
9189;BME280;34313;50.780;6.084;2023-02-13T07:30:16;101459.28;;;4.93;100.00
9189;BME280;34313;50.780;6.084;2023-02-13T07:32:41;101445.97;;;5.44;100.00
9189;BME280;34313;50.780;6.084;2023-02-13T07:35:07;101456.00;;;6.11;100.00
9189;BME280;34313;50.780;6.084;2023-02-13T07:37:32;101453.41;;;6.94;100.00
9189;BME280;34313;50.780;6.084;2023-02-13T07:39:58;101450.81;;;7.60;100.00
9189;BME280;34313;50.780;6.084;2023-02-13T07:42:23;101447.81;;;7.83;100.00
9189;BME280;34313;50.780;6.084;2023-02-13T07:44:49;101449.88;;;8.68;100.00
9189;BME280;34313;50.780;6.084;2023-02-13T07:47:14;101438.84;;;9.36;100.00
9189;BME280;34313;50.780;6.084;2023-02-13T07:49:39;101438.97;;;9.68;100.00
9189;BME280;34313;50.780;6.084;2023-02-13T07:52:05;101443.56;;;10.33;94.70
9189;BME280;34313;50.780;6.084;2023-02-13T07:54:30;101432.22;;;11.23;97.80
9189;BME280;34313;50.780;6.084;2023-02-13T07:56:57;101440.34;;;12.02;94.15
9189;BME280;34313;50.780;6.084;2023-02-13T07:59:22;101443.22;;;11.96;85.62
9189;BME280;34313;50.780;6.084;2023-02-13T08:01:48;101441.31;;;11.71;82.52
9189;BME280;34313;50.780;6.084;2023-02-13T08:04:13;101449.31;;;11.98;77.90
9189;BME280;34313;50.780;6.084;2023-02-13T08:06:39;101450.38;;;12.69;72.89
9189;BME280;34313;50.780;6.084;2023-02-13T08:09:04;101459.94;;;12.73;66.22
9189;BME280;34313;50.780;6.084;2023-02-13T08:11:49;101448.34;;;13.01;64.52
9189;BME280;34313;50.780;6.084;2023-02-13T08:14:25;101456.03;;;13.07;61.27
9189;BME280;34313;50.780;6.084;2023-02-13T08:16:52;101452.28;;;12.40;62.80
9189;BME280;34313;50.780;6.084;2023-02-13T08:19:18;101456.84;;;11.82;64.99
9189;BME280;34313;50.780;6.084;2023-02-13T08:21:44;101456.97;;;11.77;64.96
9189;BME280;34313;50.780;6.084;2023-02-13T08:24:10;101468.03;;;12.43;62.63
9189;BME280;34313;50.780;6.084;2023-02-13T08:26:35;101464.28;;;12.74;61.47
9189;BME280;34313;50.780;6.084;2023-02-13T08:29:01;101473.63;;;13.10;59.33
9189;BME280;34313;50.780;6.084;2023-02-13T08:31:27;101466.63;;;13.31;58.41
9189;BME280;34313;50.780;6.084;2023-02-13T08:33:52;101477.41;;;13.50;58.60
9189;BME280;34313;50.780;6.084;2023-02-13T08:36:18;101475.63;;;13.72;57.32
9189;BME280;34313;50.780;6.084;2023-02-13T08:38:47;101463.25;;;13.95;57.17
9189;BME280;34313;50.780;6.084;2023-02-13T08:41:13;101470.97;;;14.22;54.81
9189;BME280;34313;50.780;6.084;2023-02-13T08:43:38;101465.03;;;14.16;54.15
9189;BME280;34313;50.780;6.084;2023-02-13T08:46:04;101473.56;;;14.23;54.32
9189;BME280;34313;50.780;6.084;2023-02-13T08:48:29;101479.66;;;14.05;55.55
9189;BME280;34313;50.780;6.084;2023-02-13T08:50:55;101481.31;;;13.85;56.57
9189;BME280;34313;50.780;6.084;2023-02-13T08:53:20;101478.22;;;13.74;57.96
9189;BME280;34313;50.780;6.084;2023-02-13T08:55:56;101481.88;;;13.71;57.74
9189;BME280;34313;50.780;6.084;2023-02-13T08:58:22;101470.81;;;13.38;58.20
9189;BME280;34313;50.780;6.084;2023-02-13T09:00:48;101471.47;;;13.19;59.12
9189;BME280;34313;50.780;6.084;2023-02-13T09:03:14;101476.81;;;12.94;59.78
9189;BME280;34313;50.780;6.084;2023-02-13T09:05:40;101485.69;;;13.17;59.74
9189;BME280;34313;50.780;6.084;2023-02-13T09:08:05;101485.44;;;13.23;60.07
9189;BME280;34313;50.780;6.084;2023-02-13T09:10:32;101480.66;;;13.34;59.59
9189;BME280;34313;50.780;6.084;2023-02-13T09:12:58;101487.94;;;13.51;59.57
9189;BME280;34313;50.780;6.084;2023-02-13T09:15:25;101487.09;;;13.51;60.17
9189;BME280;34313;50.780;6.084;2023-02-13T09:17:51;101480.66;;;13.34;60.19
9189;BME280;34313;50.780;6.084;2023-02-13T09:20:16;101478.00;;;13.34;60.45
9189;BME280;34313;50.780;6.084;2023-02-13T09:22:42;101487.81;;;13.31;60.25
9189;BME280;34313;50.780;6.084;2023-02-13T09:25:09;101495.88;;;13.28;60.69
9189;BME280;34313;50.780;6.084;2023-02-13T09:27:34;101488.56;;;13.36;60.04
9189;BME280;34313;50.780;6.084;2023-02-13T09:30:00;101487.31;;;13.45;59.99
9189;BME280;34313;50.780;6.084;2023-02-13T09:32:26;101486.44;;;13.44;60.00
9189;BME280;34313;50.780;6.084;2023-02-13T09:34:52;101491.25;;;13.34;60.65
9189;BME280;34313;50.780;6.084;2023-02-13T09:37:17;101459.97;;;13.44;59.69
9189;BME280;34313;50.780;6.084;2023-02-13T09:39:46;101494.25;;;13.71;58.76
9189;BME280;34313;50.780;6.084;2023-02-13T09:42:24;101479.28;;;13.70;59.74
9189;BME280;34313;50.780;6.084;2023-02-13T09:44:53;101476.63;;;13.92;61.35
9189;BME280;34313;50.780;6.084;2023-02-13T09:47:39;101494.47;;;14.31;59.70
9189;BME280;34313;50.780;6.084;2023-02-13T09:50:20;101495.28;;;14.11;59.07
9189;BME280;34313;50.780;6.084;2023-02-13T09:52:48;101501.81;;;14.02;60.58
9189;BME280;34313;50.780;6.084;2023-02-13T09:55:20;101488.34;;;14.08;60.76
9189;BME280;34313;50.780;6.084;2023-02-13T09:58:11;101499.63;;;13.91;60.35
9189;BME280;34313;50.780;6.084;2023-02-13T10:00:46;101498.94;;;13.86;60.57
9189;BME280;34313;50.780;6.084;2023-02-13T10:03:51;101504.91;;;13.91;60.46
9189;BME280;34313;50.780;6.084;2023-02-13T10:06:31;101511.75;;;13.75;60.67
9189;BME280;34313;50.780;6.084;2023-02-13T10:09:12;101510.59;;;13.36;60.45
9189;BME280;34313;50.780;6.084;2023-02-13T10:15:30;101513.28;;;13.35;60.48
9189;BME280;34313;50.780;6.084;2023-02-13T10:17:33;101512.44;;;13.09;60.53
9189;BME280;34313;50.780;6.084;2023-02-13T10:22:56;101505.47;;;13.32;60.28
9189;BME280;34313;50.780;6.084;2023-02-13T10:25:27;101499.75;;;13.42;59.48
9189;BME280;34313;50.780;6.084;2023-02-13T10:28:08;101506.91;;;13.40;58.97
9189;BME280;34313;50.780;6.084;2023-02-13T10:30:51;101503.28;;;13.43;59.88
9189;BME280;34313;50.780;6.084;2023-02-13T10:33:29;101503.72;;;13.54;58.79
9189;BME280;34313;50.780;6.084;2023-02-13T10:36:02;101504.97;;;13.68;58.87
9189;BME280;34313;50.780;6.084;2023-02-13T10:38:31;101511.56;;;13.79;58.35
9189;BME280;34313;50.780;6.084;2023-02-13T10:49:29;101505.19;;;13.85;58.31
9189;BME280;34313;50.780;6.084;2023-02-13T10:52:36;101499.19;;;13.80;58.54
9189;BME280;34313;50.780;6.084;2023-02-13T11:00:39;101488.16;;;13.91;57.66
9189;BME280;34313;50.780;6.084;2023-02-13T11:03:23;101479.56;;;13.62;58.54
9189;BME280;34313;50.780;6.084;2023-02-13T11:05:50;101489.03;;;13.46;59.06
9189;BME280;34313;50.780;6.084;2023-02-13T11:08:22;101485.19;;;13.31;60.08
9189;BME280;34313;50.780;6.084;2023-02-13T11:10:49;101478.91;;;13.10;59.65
9189;BME280;34313;50.780;6.084;2023-02-13T11:13:26;101482.28;;;12.64;59.17
9189;BME280;34313;50.780;6.084;2023-02-13T11:15:59;101474.94;;;12.47;61.07
9189;BME280;34313;50.780;6.084;2023-02-13T11:18:28;101477.34;;;12.28;61.51
9189;BME280;34313;50.780;6.084;2023-02-13T11:21:13;101468.66;;;12.25;62.08
9189;BME280;34313;50.780;6.084;2023-02-13T11:23:48;101470.19;;;12.05;63.14
9189;BME280;34313;50.780;6.084;2023-02-13T11:26:21;101466.28;;;11.90;62.74
9189;BME280;34313;50.780;6.084;2023-02-13T11:28:55;101468.59;;;11.71;64.77
9189;BME280;34313;50.780;6.084;2023-02-13T11:31:36;101463.84;;;11.83;64.41
9189;BME280;34313;50.780;6.084;2023-02-13T11:36:50;101460.63;;;11.45;66.65
9189;BME280;34313;50.780;6.084;2023-02-13T11:39:21;101452.97;;;11.64;66.69
9189;BME280;34313;50.780;6.084;2023-02-13T11:41:47;101450.03;;;11.75;67.05
9189;BME280;34313;50.780;6.084;2023-02-13T11:44:26;101453.13;;;11.87;66.75
9189;BME280;34313;50.780;6.084;2023-02-13T11:46:54;101442.19;;;12.00;67.23
9189;BME280;34313;50.780;6.084;2023-02-13T11:49:25;101443.59;;;11.83;68.36
9189;BME280;34313;50.780;6.084;2023-02-13T11:52:00;101442.16;;;11.73;68.69
9189;BME280;34313;50.780;6.084;2023-02-13T11:57:22;101438.19;;;11.86;68.65
9189;BME280;34313;50.780;6.084;2023-02-13T11:59:50;101436.09;;;11.69;69.09
9189;BME280;34313;50.780;6.084;2023-02-13T12:04:51;101430.75;;;11.71;69.52
9189;BME280;34313;50.780;6.084;2023-02-13T12:07:20;101427.28;;;11.69;69.59
9189;BME280;34313;50.780;6.084;2023-02-13T12:10:26;101434.69;;;11.86;69.15
9189;BME280;34313;50.780;6.084;2023-02-13T12:12:57;101418.25;;;11.76;69.50
9189;BME280;34313;50.780;6.084;2023-02-13T12:15:27;101420.50;;;11.88;68.86
9189;BME280;34313;50.780;6.084;2023-02-13T12:18:18;101422.88;;;11.98;68.90
9189;BME280;34313;50.780;6.084;2023-02-13T12:23:44;101427.81;;;12.08;67.75
9189;BME280;34313;50.780;6.084;2023-02-13T12:34:16;101414.91;;;11.99;66.59
9189;BME280;34313;50.780;6.084;2023-02-13T12:40:11;101398.31;;;12.21;65.53
9189;BME280;34313;50.780;6.084;2023-02-13T12:45:41;101398.25;;;12.22;65.37
9189;BME280;34313;50.780;6.084;2023-02-13T12:48:30;101405.00;;;12.31;65.35
9189;BME280;34313;50.780;6.084;2023-02-13T12:51:20;101402.25;;;12.34;64.68
9189;BME280;34313;50.780;6.084;2023-02-13T12:54:21;101395.50;;;12.51;64.39
9189;BME280;34313;50.780;6.084;2023-02-13T13:13:30;101383.66;;;12.61;63.72
9189;BME280;34313;50.780;6.084;2023-02-13T13:19:29;101375.03;;;12.79;61.81
9189;BME280;34313;50.780;6.084;2023-02-13T13:22:11;101375.72;;;12.84;61.57
9189;BME280;34313;50.780;6.084;2023-02-13T13:27:52;101369.91;;;12.98;61.03
9189;BME280;34313;50.780;6.084;2023-02-13T13:30:23;101366.63;;;12.92;59.08
9189;BME280;34313;50.780;6.084;2023-02-13T13:32:54;101355.94;;;12.95;60.37
9189;BME280;34313;50.780;6.084;2023-02-13T13:35:21;101351.91;;;12.84;61.76
9189;BME280;34313;50.780;6.084;2023-02-13T13:38:11;101359.47;;;12.94;62.19
9189;BME280;34313;50.780;6.084;2023-02-13T13:40:48;101360.91;;;13.02;62.16
9189;BME280;34313;50.780;6.084;2023-02-13T13:51:20;101346.97;;;13.21;59.47
9189;BME280;34313;50.780;6.084;2023-02-13T13:56:23;101344.69;;;13.12;60.58
9189;BME280;34313;50.780;6.084;2023-02-13T13:58:49;101345.72;;;13.08;60.51
9189;BME280;34313;50.780;6.084;2023-02-13T14:01:28;101341.72;;;13.19;59.89
9189;BME280;34313;50.780;6.084;2023-02-13T14:03:54;101341.16;;;13.11;59.63
9189;BME280;34313;50.780;6.084;2023-02-13T14:09:05;101345.44;;;13.15;59.50
9189;BME280;34313;50.780;6.084;2023-02-13T14:13:59;101339.47;;;13.10;59.62
9189;BME280;34313;50.780;6.084;2023-02-13T14:16:42;101343.84;;;12.88;61.16
9189;BME280;34313;50.780;6.084;2023-02-13T14:27:21;101335.38;;;12.78;61.86
9189;BME280;34313;50.780;6.084;2023-02-13T14:29:47;101339.88;;;12.76;62.70
9189;BME280;34313;50.780;6.084;2023-02-13T14:32:21;101332.16;;;12.71;63.27
9189;BME280;34313;50.780;6.084;2023-02-13T14:34:56;101339.25;;;12.69;62.17
9189;BME280;34313;50.780;6.084;2023-02-13T14:37:28;101334.38;;;12.82;62.13
9189;BME280;34313;50.780;6.084;2023-02-13T14:40:47;101335.69;;;12.70;62.21
9189;BME280;34313;50.780;6.084;2023-02-13T14:43:20;101330.50;;;12.67;64.14
9189;BME280;34313;50.780;6.084;2023-02-13T14:46:22;101329.41;;;12.73;64.92
9189;BME280;34313;50.780;6.084;2023-02-13T14:49:01;101313.69;;;12.70;65.86
9189;BME280;34313;50.780;6.084;2023-02-13T14:51:39;101319.88;;;12.68;66.73
9189;BME280;34313;50.780;6.084;2023-02-13T14:54:25;101317.47;;;12.62;67.40
9189;BME280;34313;50.780;6.084;2023-02-13T14:56:56;101313.50;;;12.51;68.90
9189;BME280;34313;50.780;6.084;2023-02-13T14:59:28;101308.72;;;12.60;68.66
9189;BME280;34313;50.780;6.084;2023-02-13T15:02:03;101305.06;;;12.64;66.96
9189;BME280;34313;50.780;6.084;2023-02-13T15:04:41;101307.97;;;12.57;68.03
9189;BME280;34313;50.780;6.084;2023-02-13T15:07:17;101302.94;;;12.51;68.83
9189;BME280;34313;50.780;6.084;2023-02-13T15:09:59;101312.72;;;12.48;70.44
9189;BME280;34313;50.780;6.084;2023-02-13T15:14:56;101303.72;;;12.29;73.41
9189;BME280;34313;50.780;6.084;2023-02-13T15:17:31;101300.34;;;12.25;74.13
9189;BME280;34313;50.780;6.084;2023-02-13T15:22:38;101302.59;;;12.11;75.96
9189;BME280;34313;50.780;6.084;2023-02-13T15:25:07;101312.22;;;12.14;76.17
9189;BME280;34313;50.780;6.084;2023-02-13T15:27:40;101307.69;;;12.17;75.92
9189;BME280;34313;50.780;6.084;2023-02-13T15:30:23;101308.88;;;12.08;76.75